Time;durP1;ratioP1;P1;durP2;ratioP2;P2;SDS_P1;SDS_P2;PMS_P1;PMS_P2;Temp;Humidity;BMP_temperature;BMP_pressure;BME280_temperature;BME280_humidity;BME280_pressure;Samples;Min_cycle;Max_cycle;Signal;HPM_P1;HPM_P2
2024/02/06 00:07:11;;;;;;;2.00;1.05;;;;;;;9.06;68.03;100458.28;15727518;28;20128;-46
2024/02/06 00:14:50;;;;;;;0.00;0.00;;;;;;;9.10;67.49;100456.84;15702210;28;20071;-45
2024/02/06 00:22:23;;;;;;;0.00;0.00;;;;;;;9.13;67.02;100448.38;15724657;28;20136;-47
2024/02/06 00:30:00;;;;;;;0.00;0.00;;;;;;;8.97;67.50;100451.50;15731183;28;20288;-49
2024/02/06 00:37:35;;;;;;;1.08;0.80;;;;;;;9.12;67.26;100451.25;15717724;28;20043;-45
2024/02/06 00:45:10;;;;;;;;;;;;;;;9.00;67.35;100451.09;15728198;28;20140;-50
2024/02/06 00:52:44;;;;;;;0.10;0.10;;;;;;;9.11;67.19;100446.94;15730143;28;19987;-48
2024/02/06 01:00:19;;;;;;;2.33;0.43;;;;;;;9.08;67.21;100439.31;15721865;28;20507;-49
2024/02/06 01:07:54;;;;;;;0.35;0.20;;;;;;;9.06;67.09;100433.38;15707468;28;20033;-47
2024/02/06 01:15:29;;;;;;;0.30;0.30;;;;;;;8.81;68.36;100444.72;15735541;28;20033;-49
2024/02/06 01:23:03;;;;;;;0.73;0.73;;;;;;;8.79;68.89;100429.88;15736406;28;20548;-48
2024/02/06 01:30:38;;;;;;;3.25;1.15;;;;;;;8.86;69.09;100452.09;15736780;28;20051;-49
2024/02/06 01:38:12;;;;;;;0.52;0.52;;;;;;;8.74;69.55;100438.53;15730203;28;20064;-47
2024/02/06 01:45:50;;;;;;;0.55;0.55;;;;;;;8.95;68.80;100437.47;15729173;28;20302;-49
2024/02/06 01:53:24;;;;;;;0.20;0.20;;;;;;;8.63;70.25;100428.44;15738275;28;20078;-49
2024/02/06 02:01:00;;;;;;;0.00;0.00;;;;;;;8.61;71.29;100425.94;15732595;28;20123;-54
2024/02/06 02:08:35;;;;;;;0.00;0.00;;;;;;;8.51;71.97;100406.81;15718287;28;20448;-49
2024/02/06 02:16:11;;;;;;;0.25;0.20;;;;;;;8.77;71.24;100400.66;15727266;28;20135;-48
2024/02/06 02:23:49;;;;;;;0.00;0.00;;;;;;;8.51;71.65;100395.28;15729100;28;20456;-48
2024/02/06 02:31:24;;;;;;;0.00;0.00;;;;;;;8.53;72.20;100391.38;15712082;28;20036;-50
2024/02/06 02:39:04;;;;;;;0.10;0.10;;;;;;;8.66;72.02;100378.00;15728917;28;20124;-49
2024/02/06 02:46:38;;;;;;;0.00;0.00;;;;;;;8.50;72.81;100370.41;15717059;28;20119;-49
2024/02/06 02:54:16;;;;;;;0.47;0.47;;;;;;;8.66;72.31;100371.81;15729474;28;20413;-49
2024/02/06 03:01:53;;;;;;;0.10;0.10;;;;;;;8.75;71.83;100369.75;15731479;28;20055;-47
2024/02/06 03:09:28;;;;;;;0.00;0.00;;;;;;;8.68;72.18;100367.09;15730322;28;20040;-45
2024/02/06 03:17:06;;;;;;;0.20;0.20;;;;;;;8.55;72.68;100367.94;15725425;28;20227;-46
2024/02/06 03:24:41;;;;;;;0.08;0.08;;;;;;;8.50;73.25;100337.47;15713546;28;20036;-47
2024/02/06 03:32:15;;;;;;;0.20;0.20;;;;;;;8.39;73.32;100323.72;15715377;28;20074;-46
2024/02/06 03:39:52;;;;;;;0.00;0.00;;;;;;;8.56;72.50;100332.13;15728670;28;20072;-48
2024/02/06 03:47:26;;;;;;;0.00;0.00;;;;;;;8.55;72.36;100318.97;15714895;28;20032;-48
2024/02/06 03:55:01;;;;;;;0.00;0.00;;;;;;;8.62;71.89;100338.47;15710167;28;20052;-49
2024/02/06 04:02:39;;;;;;;0.00;0.00;;;;;;;8.50;72.70;100334.81;15726978;28;20055;-51
2024/02/06 04:10:18;;;;;;;0.00;0.00;;;;;;;8.59;72.54;100310.31;15718285;28;20448;-47
2024/02/06 04:17:59;;;;;;;0.20;0.20;;;;;;;8.55;72.97;100306.41;15732781;28;20101;-45
2024/02/06 04:25:36;;;;;;;0.00;0.00;;;;;;;8.57;72.87;100312.34;15742134;28;20052;-47
2024/02/06 04:33:18;;;;;;;0.00;0.00;;;;;;;8.62;72.94;100301.84;15730746;28;20169;-46
2024/02/06 04:40:58;;;;;;;0.00;0.00;;;;;;;8.71;72.82;100301.63;15751096;28;20075;-48
2024/02/06 04:48:38;;;;;;;0.00;0.00;;;;;;;8.53;73.69;100295.06;15749219;28;20041;-44
2024/02/06 04:56:14;;;;;;;;;;;;;;;8.55;73.66;100268.13;15750661;28;20041;-45
2024/02/06 05:03:51;;;;;;;0.80;0.35;;;;;;;8.56;74.14;100275.94;15737762;28;19924;-48
2024/02/06 05:11:29;;;;;;;0.10;0.10;;;;;;;8.47;74.14;100269.16;15752325;28;20056;-53
2024/02/06 05:19:05;;;;;;;7.18;1.17;;;;;;;8.61;73.28;100262.75;15715315;28;20052;-50
2024/02/06 05:26:39;;;;;;;;;;;;;;;8.65;73.25;100249.78;15752598;28;20037;-48
2024/02/06 05:34:14;;;;;;;0.00;0.00;;;;;;;8.63;72.91;100241.16;15731849;28;19920;-50
2024/02/06 05:42:07;;;;;;;0.98;0.73;;;;;;;8.56;72.81;100233.13;15722343;28;20087;-48
2024/02/06 05:49:41;;;;;;;0.10;0.10;;;;;;;8.84;71.70;100238.19;15736202;28;20045;-49
2024/02/06 05:57:19;;;;;;;0.00;0.00;;;;;;;8.81;71.75;100244.00;15731939;28;20511;-49
2024/02/06 06:04:57;;;;;;;0.20;0.20;;;;;;;8.83;71.80;100233.06;15736970;28;20413;-47
2024/02/06 06:12:33;;;;;;;0.00;0.00;;;;;;;8.90;71.60;100226.66;15738533;28;20045;-48
2024/02/06 06:20:11;;;;;;;0.00;0.00;;;;;;;8.92;71.80;100223.78;15736676;28;20499;-45
2024/02/06 06:27:47;;;;;;;0.00;0.00;;;;;;;8.88;71.63;100206.50;15735476;28;20417;-47
2024/02/06 06:35:21;;;;;;;0.00;0.00;;;;;;;9.00;71.15;100203.97;15720875;28;20492;-45
2024/02/06 06:43:00;;;;;;;0.00;0.00;;;;;;;8.95;71.24;100204.59;15719776;28;20040;-45
2024/02/06 06:50:36;;;;;;;0.00;0.00;;;;;;;9.24;70.38;100207.78;15732590;28;20045;-48
2024/02/06 06:58:15;;;;;;;0.00;0.00;;;;;;;9.07;70.52;100194.06;15735722;28;20505;-48
2024/02/06 07:05:52;;;;;;;0.00;0.00;;;;;;;9.08;70.37;100193.84;15736400;28;20040;-51
2024/02/06 07:13:28;;;;;;;0.00;0.00;;;;;;;9.36;69.40;100196.16;15736519;28;20048;-49
2024/02/06 07:21:03;;;;;;;0.52;0.50;;;;;;;9.24;69.93;100200.56;15715957;28;20091;-49
2024/02/06 07:28:40;;;;;;;0.55;0.55;;;;;;;9.26;70.05;100185.09;15769132;22;20042;-52
2024/02/06 07:36:15;;;;;;;0.00;0.00;;;;;;;9.24;70.45;100199.75;15816006;28;20407;-49
2024/02/06 07:43:50;;;;;;;0.45;0.45;;;;;;;9.29;70.03;100184.66;15862299;28;20048;-49
2024/02/06 07:51:27;;;;;;;0.00;0.00;;;;;;;9.34;70.16;100189.38;15800522;28;20040;-54
2024/02/06 07:59:11;;;;;;;0.00;0.00;;;;;;;9.38;69.95;100185.25;15798562;28;20040;-48
2024/02/06 08:06:47;;;;;;;0.00;0.00;;;;;;;9.41;70.10;100190.97;15847115;28;20040;-49
2024/02/06 08:14:22;;;;;;;0.13;0.13;;;;;;;9.43;69.75;100177.38;15833864;28;20052;-51
2024/02/06 08:21:55;;;;;;;2.97;1.30;;;;;;;9.52;69.06;100183.28;15822989;28;20036;-49
2024/02/06 08:29:36;;;;;;;0.03;0.03;;;;;;;9.72;68.33;100170.56;15777837;28;20455;-54
2024/02/06 08:37:10;;;;;;;0.00;0.00;;;;;;;9.85;68.25;100177.69;15800037;28;20462;-47
2024/02/06 08:44:46;;;;;;;0.10;0.10;;;;;;;9.87;68.13;100178.25;15800851;28;20124;-49
2024/02/06 08:52:19;;;;;;;0.00;0.00;;;;;;;9.97;67.06;100157.94;15782671;28;20055;-51
2024/02/06 08:59:54;;;;;;;0.00;0.00;;;;;;;10.13;66.63;100153.09;15860371;28;20040;-49
2024/02/06 09:07:28;;;;;;;11.30;1.55;;;;;;;10.10;66.71;100143.59;15827611;28;20044;-48
2024/02/06 09:15:06;;;;;;;3.55;1.63;;;;;;;10.15;66.45;100140.25;15806316;28;20048;-52
2024/02/06 09:22:43;;;;;;;0.10;0.10;;;;;;;10.22;66.34;100144.53;15805163;28;20097;-52
2024/02/06 09:30:18;;;;;;;0.47;0.30;;;;;;;10.16;66.76;100142.69;15774210;28;20533;-48
2024/02/06 09:37:54;;;;;;;0.00;0.00;;;;;;;10.15;66.80;100145.63;15840743;28;20072;-47
2024/02/06 09:45:29;;;;;;;0.00;0.00;;;;;;;10.15;67.35;100159.84;15814868;28;20468;-48
2024/02/06 09:53:09;;;;;;;0.08;0.00;;;;;;;10.32;66.21;100162.00;15846343;28;20067;-50
2024/02/06 10:00:46;;;;;;;0.32;0.28;;;;;;;10.41;66.41;100163.34;15825518;28;20059;-52
2024/02/06 10:08:21;;;;;;;0.00;0.00;;;;;;;10.29;66.27;100155.19;15836353;28;20051;-51
2024/02/06 10:15:56;;;;;;;0.00;0.00;;;;;;;10.27;66.26;100145.75;15822997;28;20488;-48
2024/02/06 10:23:33;;;;;;;0.00;0.00;;;;;;;10.57;66.02;100135.91;15817514;28;20140;-48
2024/02/06 10:31:11;;;;;;;0.00;0.00;;;;;;;10.46;66.71;100137.47;15808464;28;20412;-51
2024/02/06 10:38:45;;;;;;;0.00;0.00;;;;;;;10.54;66.39;100122.94;15809712;28;20373;-49
2024/02/06 10:46:22;;;;;;;0.00;0.00;;;;;;;10.53;66.35;100115.09;15807572;28;20083;-51
2024/02/06 10:53:57;;;;;;;0.00;0.00;;;;;;;10.53;66.34;100105.19;15827959;28;20052;-51
2024/02/06 11:01:37;;;;;;;0.00;0.00;;;;;;;10.53;66.16;100101.69;15809267;28;20048;-51
2024/02/06 11:09:16;;;;;;;0.30;0.20;;;;;;;10.67;65.96;100100.47;15820894;28;20124;-51
2024/02/06 11:16:57;;;;;;;0.10;0.10;;;;;;;10.50;66.63;100086.06;15842656;28;20453;-51
2024/02/06 11:24:32;;;;;;;0.00;0.00;;;;;;;10.44;66.91;100087.75;15847424;28;20122;-49
2024/02/06 11:32:08;;;;;;;0.15;0.08;;;;;;;10.58;67.25;100085.72;15805956;28;20036;-51
2024/02/06 11:39:42;;;;;;;0.00;0.00;;;;;;;10.46;66.93;100078.44;15791046;28;20043;-48
2024/02/06 11:47:21;;;;;;;0.00;0.00;;;;;;;10.53;66.52;100064.94;15806277;28;20044;-48
2024/02/06 11:54:56;;;;;;;0.32;0.22;;;;;;;10.51;66.05;100040.19;15806761;28;20376;-50
2024/02/06 12:02:31;;;;;;;0.10;0.10;;;;;;;10.70;64.92;100031.06;15829718;28;20095;-47
2024/02/06 12:10:06;;;;;;;0.10;0.10;;;;;;;10.90;65.06;100025.38;15821507;28;20548;-53
2024/02/06 12:17:45;;;;;;;0.00;0.00;;;;;;;10.99;64.25;100025.88;15814015;28;20047;-51
2024/02/06 12:25:19;;;;;;;0.40;0.40;;;;;;;10.92;64.80;100042.09;15785938;28;20062;-48
2024/02/06 12:32:57;;;;;;;0.00;0.00;;;;;;;11.01;64.25;100004.19;15779189;28;20484;-48
2024/02/06 12:40:32;;;;;;;0.00;0.00;;;;;;;10.95;63.91;99971.00;15789196;28;20043;-52
2024/02/06 12:48:08;;;;;;;0.00;0.00;;;;;;;10.98;63.64;99963.31;15812873;28;20062;-48
2024/02/06 12:55:43;;;;;;;0.00;0.00;;;;;;;11.04;63.55;99963.41;15812513;28;20052;-54
2024/02/06 13:03:18;;;;;;;0.00;0.00;;;;;;;11.08;63.77;99978.84;15794408;28;20524;-49
2024/02/06 13:10:52;;;;;;;0.00;0.00;;;;;;;11.15;63.45;99946.50;15794364;28;20385;-52
2024/02/06 13:18:32;;;;;;;0.00;0.00;;;;;;;11.25;62.68;99968.22;15794371;28;20040;-50
2024/02/06 13:26:07;;;;;;;0.00;0.00;;;;;;;11.05;63.59;99946.25;15812070;28;20105;-51
2024/02/06 13:33:42;;;;;;;0.00;0.00;;;;;;;11.18;63.42;99943.34;15859901;22;20039;-52
2024/02/06 13:41:16;;;;;;;0.00;0.00;;;;;;;11.04;64.00;99948.13;15868391;28;20479;-48
2024/02/06 13:48:50;;;;;;;0.00;0.00;;;;;;;11.00;63.94;99941.56;15813321;28;20048;-48
2024/02/06 13:56:25;;;;;;;0.00;0.00;;;;;;;11.07;64.31;99928.06;15790325;28;20040;-50
2024/02/06 14:04:00;;;;;;;2.20;0.70;;;;;;;11.02;65.33;99907.28;15801734;28;20055;-47
2024/02/06 14:11:33;;;;;;;0.68;0.55;;;;;;;11.10;64.66;99912.28;15826711;28;20063;-53
2024/02/06 14:19:08;;;;;;;0.00;0.00;;;;;;;10.97;65.35;99885.66;15802413;28;20067;-49
2024/02/06 14:26:43;;;;;;;0.00;0.00;;;;;;;10.95;65.51;99871.66;15803686;28;20071;-45
2024/02/06 14:34:19;;;;;;;0.00;0.00;;;;;;;11.16;64.96;99859.50;15786533;28;20051;-45
2024/02/06 14:41:54;;;;;;;0.52;0.52;;;;;;;11.15;64.52;99853.31;15785276;28;20256;-44
2024/02/06 14:49:29;;;;;;;0.00;0.00;;;;;;;11.07;65.02;99834.06;15794486;28;20062;-44
2024/02/06 14:57:03;;;;;;;0.00;0.00;;;;;;;11.07;64.81;99842.94;15815753;28;20542;-46
2024/02/06 15:04:40;;;;;;;0.00;0.00;;;;;;;11.10;64.67;99828.22;15856733;28;20089;-45
2024/02/06 15:12:13;;;;;;;0.00;0.00;;;;;;;11.05;64.60;99828.94;15863880;28;20437;-50
2024/02/06 15:19:49;;;;;;;0.00;0.00;;;;;;;11.19;64.79;99824.09;15863424;28;20047;-45
2024/02/06 15:27:23;;;;;;;0.00;0.00;;;;;;;10.86;66.43;99808.63;15800641;28;20044;-48
2024/02/06 15:34:59;;;;;;;0.00;0.00;;;;;;;10.88;66.05;99817.28;15800846;28;20376;-47
2024/02/06 15:42:32;;;;;;;2.17;1.02;;;;;;;10.86;66.25;99792.50;15799030;28;20062;-44
2024/02/06 15:50:11;;;;;;;0.00;0.00;;;;;;;10.87;66.57;99776.19;15788126;28;20472;-48
2024/02/06 15:57:45;;;;;;;0.88;0.28;;;;;;;10.73;67.38;99791.72;15781877;28;20050;-47
2024/02/06 16:05:20;;;;;;;0.22;0.22;;;;;;;10.78;67.48;99777.59;15808272;28;20043;-45
2024/02/06 16:12:54;;;;;;;0.20;0.20;;;;;;;10.72;67.74;99752.53;15804352;28;20111;-45
2024/02/06 16:20:30;;;;;;;0.05;0.03;;;;;;;10.59;67.90;99747.41;15798150;28;20048;-49
2024/02/06 16:28:08;;;;;;;0.00;0.00;;;;;;;10.60;68.05;99732.09;15797277;28;20040;-50
2024/02/06 16:35:43;;;;;;;0.47;0.45;;;;;;;10.36;69.34;99737.47;15798201;28;20044;-50
2024/02/06 16:43:17;;;;;;;0.17;0.17;;;;;;;10.53;68.59;99726.03;15782668;28;20063;-46
2024/02/06 16:50:53;;;;;;;0.00;0.00;;;;;;;10.45;69.34;99740.63;15823462;28;20097;-48
2024/02/06 16:58:26;;;;;;;0.00;0.00;;;;;;;10.43;69.51;99740.84;15810832;28;20062;-45
2024/02/06 17:06:02;;;;;;;0.40;0.25;;;;;;;10.29;69.94;99734.09;15783428;28;20310;-46
2024/02/06 17:13:36;;;;;;;0.00;0.00;;;;;;;10.42;70.31;99725.00;15805737;28;20039;-48
2024/02/06 17:21:11;;;;;;;0.00;0.00;;;;;;;10.22;70.82;99715.41;15799746;28;20459;-48
2024/02/06 17:28:45;;;;;;;0.00;0.00;;;;;;;10.17;71.29;99695.72;15828729;28;20036;-46
2024/02/06 17:36:20;;;;;;;0.13;0.10;;;;;;;10.32;70.91;99703.31;15807915;28;20054;-49
2024/02/06 17:43:53;;;;;;;0.00;0.00;;;;;;;10.02;71.67;99693.47;15804952;28;20093;-47
2024/02/06 17:51:29;;;;;;;0.03;0.03;;;;;;;10.21;70.45;99686.97;15796964;28;20032;-44
2024/02/06 17:59:02;;;;;;;0.00;0.00;;;;;;;10.36;69.52;99669.63;15834625;28;20070;-46
2024/02/06 18:06:41;;;;;;;0.25;0.10;;;;;;;10.47;68.56;99656.16;15821394;28;20044;-46
2024/02/06 18:14:15;;;;;;;0.35;0.35;;;;;;;10.43;68.63;99662.25;15821024;28;20067;-46
2024/02/06 18:21:52;;;;;;;0.85;0.55;;;;;;;10.46;67.76;99646.50;15803401;28;20435;-47
2024/02/06 18:29:27;;;;;;;0.00;0.00;;;;;;;10.37;67.74;99623.75;15801147;28;20713;-45
2024/02/06 18:37:03;;;;;;;0.15;0.15;;;;;;;10.44;67.13;99629.84;15803666;28;20151;-48
2024/02/06 18:44:37;;;;;;;0.00;0.00;;;;;;;10.53;66.83;99635.63;15786190;28;20113;-49
2024/02/06 18:52:13;;;;;;;0.00;0.00;;;;;;;10.50;66.60;99603.91;15805414;28;20044;-50
2024/02/06 18:59:47;;;;;;;0.20;0.20;;;;;;;10.57;67.21;99595.72;15801066;28;20055;-50
2024/02/06 19:07:23;;;;;;;0.00;0.00;;;;;;;10.52;67.16;99595.63;15807388;28;20040;-45
2024/02/06 19:14:56;;;;;;;0.00;0.00;;;;;;;10.40;67.43;99598.34;15829281;28;20071;-50
2024/02/06 19:22:31;;;;;;;;;;;;;;;10.43;67.46;99603.22;15809209;28;20400;-46
2024/02/06 19:30:06;;;;;;;0.08;0.08;;;;;;;10.48;67.30;99601.44;15833088;28;19920;-46
2024/02/06 19:37:41;;;;;;;0.15;0.15;;;;;;;10.48;67.60;99609.50;15780472;28;20094;-48
2024/02/06 19:45:15;;;;;;;0.00;0.00;;;;;;;10.49;67.66;99596.91;15812934;28;20385;-50
2024/02/06 19:52:50;;;;;;;0.40;0.40;;;;;;;10.48;68.18;99603.31;15821323;28;20044;-49
2024/02/06 20:00:26;;;;;;;0.00;0.00;;;;;;;10.37;69.14;99598.81;15800522;28;20408;-52
2024/02/06 20:08:02;;;;;;;0.00;0.00;;;;;;;10.34;69.21;99593.91;15797214;28;20048;-46
2024/02/06 20:15:37;;;;;;;0.08;0.08;;;;;;;10.32;69.33;99585.31;15785168;28;20054;-46
2024/02/06 20:23:12;;;;;;;0.05;0.05;;;;;;;10.53;68.66;99587.31;15805843;28;20044;-45
2024/02/06 20:30:46;;;;;;;0.00;0.00;;;;;;;10.41;68.92;99567.78;15803621;28;20127;-50
2024/02/06 20:38:21;;;;;;;0.00;0.00;;;;;;;10.43;69.30;99565.66;15815793;28;20120;-47
2024/02/06 20:45:55;;;;;;;0.05;0.05;;;;;;;10.38;69.90;99570.94;15836768;28;20341;-46
2024/02/06 20:53:31;;;;;;;3.05;1.40;;;;;;;10.24;71.28;99565.00;15829581;28;20059;-45
2024/02/06 21:01:07;;;;;;;0.20;0.20;;;;;;;10.15;71.86;99553.81;15813213;28;20166;-47
2024/02/06 21:08:42;;;;;;;0.00;0.00;;;;;;;10.17;71.73;99557.09;15833491;28;20035;-45
2024/02/06 21:16:16;;;;;;;0.08;0.03;;;;;;;10.05;72.64;99545.56;15792936;28;20054;-46
2024/02/06 21:23:54;;;;;;;0.03;0.03;;;;;;;10.19;72.35;99543.44;15800955;28;20032;-50
2024/02/06 21:31:29;;;;;;;0.00;0.00;;;;;;;9.89;74.33;99544.44;15807886;28;20082;-49
2024/02/06 21:39:06;;;;;;;0.20;0.20;;;;;;;9.77;74.73;99529.41;15808485;28;20040;-48
2024/02/06 21:46:39;;;;;;;0.00;0.00;;;;;;;9.97;73.50;99525.28;15849086;28;20072;-50
2024/02/06 21:54:15;;;;;;;0.00;0.00;;;;;;;10.08;72.94;99506.75;15787959;28;20044;-50
2024/02/06 22:01:48;;;;;;;1.13;0.22;;;;;;;9.91;73.47;99509.34;15803769;28;20056;-50
2024/02/06 22:09:24;;;;;;;0.00;0.00;;;;;;;9.47;76.21;99492.84;15784365;28;20036;-46
2024/02/06 22:17:00;;;;;;;0.20;0.20;;;;;;;9.37;76.40;99474.69;15823703;28;20557;-47
2024/02/06 22:24:42;;;;;;;0.35;0.35;;;;;;;9.46;75.34;99472.44;15798563;28;20050;-49
2024/02/06 22:32:16;;;;;;;1.65;0.50;;;;;;;9.48;75.45;99461.53;15807199;28;20078;-48
2024/02/06 22:39:51;;;;;;;2.17;1.13;;;;;;;9.43;76.50;99464.91;15817094;28;20036;-46
2024/02/06 22:47:24;;;;;;;0.03;0.03;;;;;;;9.50;75.40;99443.34;15818794;28;20048;-47
2024/02/06 22:54:59;;;;;;;3.83;2.28;;;;;;;9.75;74.26;99432.38;15810187;28;20051;-47
2024/02/06 23:02:33;;;;;;;0.03;0.03;;;;;;;9.78;74.24;99439.91;15863175;28;20126;-48
2024/02/06 23:10:09;;;;;;;0.00;0.00;;;;;;;9.61;75.47;99458.59;15858019;28;20480;-49
2024/02/06 23:18:00;;;;;;;0.38;0.38;;;;;;;9.39;78.31;99448.47;15825488;28;20097;-46
2024/02/06 23:25:36;;;;;;;0.98;0.75;;;;;;;9.28;79.14;99433.25;15815902;28;20073;-47
2024/02/06 23:33:09;;;;;;;0.20;0.20;;;;;;;9.03;81.17;99428.09;15800338;28;20052;-49
2024/02/06 23:40:44;;;;;;;;;;;;;;;9.10;82.12;99433.38;15794461;28;20543;-49
2024/02/06 23:48:17;;;;;;;0.00;0.00;;;;;;;8.82;84.24;99416.13;15799673;28;20206;-47
2024/02/06 23:56:10;;;;;;;0.17;0.13;;;;;;;8.83;84.47;99411.59;15793274;28;20549;-50
